sensor_id;sensor_type;location;lat;lon;timestamp;P1;durP1;ratioP1;P2;durP2;ratioP2
42514;SDS011;28144;49.920;18.730;2023-09-30T00:00:26;18.88;;;8.63;;
42514;SDS011;28144;49.920;18.730;2023-09-30T00:03:12;15.13;;;9.60;;
42514;SDS011;28144;49.920;18.730;2023-09-30T00:05:38;16.70;;;10.52;;
42514;SDS011;28144;49.920;18.730;2023-09-30T00:08:04;17.93;;;9.47;;
42514;SDS011;28144;49.920;18.730;2023-09-30T00:10:30;14.57;;;9.88;;
42514;SDS011;28144;49.920;18.730;2023-09-30T00:12:56;19.20;;;10.95;;
42514;SDS011;28144;49.920;18.730;2023-09-30T00:15:22;18.27;;;10.90;;
42514;SDS011;28144;49.920;18.730;2023-09-30T00:17:48;19.47;;;10.97;;
42514;SDS011;28144;49.920;18.730;2023-09-30T00:20:14;21.50;;;11.60;;
42514;SDS011;28144;49.920;18.730;2023-09-30T00:22:42;19.17;;;11.30;;
42514;SDS011;28144;49.920;18.730;2023-09-30T00:25:09;17.60;;;11.80;;
42514;SDS011;28144;49.920;18.730;2023-09-30T00:27:35;17.15;;;10.43;;
42514;SDS011;28144;49.920;18.730;2023-09-30T00:30:01;19.15;;;10.45;;
42514;SDS011;28144;49.920;18.730;2023-09-30T00:32:28;23.67;;;11.38;;
42514;SDS011;28144;49.920;18.730;2023-09-30T00:34:54;15.90;;;11.07;;
42514;SDS011;28144;49.920;18.730;2023-09-30T00:37:20;20.90;;;11.43;;
42514;SDS011;28144;49.920;18.730;2023-09-30T00:39:46;18.98;;;11.00;;
42514;SDS011;28144;49.920;18.730;2023-09-30T00:44:39;22.23;;;10.85;;
42514;SDS011;28144;49.920;18.730;2023-09-30T00:47:04;20.77;;;11.17;;
42514;SDS011;28144;49.920;18.730;2023-09-30T00:49:30;18.08;;;11.10;;
42514;SDS011;28144;49.920;18.730;2023-09-30T00:51:56;18.60;;;11.60;;
42514;SDS011;28144;49.920;18.730;2023-09-30T00:54:23;23.85;;;11.23;;
42514;SDS011;28144;49.920;18.730;2023-09-30T00:56:50;20.70;;;10.80;;
42514;SDS011;28144;49.920;18.730;2023-09-30T00:59:16;25.25;;;11.73;;
42514;SDS011;28144;49.920;18.730;2023-09-30T01:01:42;18.63;;;11.43;;
42514;SDS011;28144;49.920;18.730;2023-09-30T01:04:09;20.90;;;11.27;;
42514;SDS011;28144;49.920;18.730;2023-09-30T01:06:36;18.30;;;10.38;;
42514;SDS011;28144;49.920;18.730;2023-09-30T01:09:02;18.42;;;11.07;;
42514;SDS011;28144;49.920;18.730;2023-09-30T01:11:28;21.38;;;10.27;;
42514;SDS011;28144;49.920;18.730;2023-09-30T01:13:54;18.70;;;11.13;;
42514;SDS011;28144;49.920;18.730;2023-09-30T01:16:20;15.13;;;10.15;;
42514;SDS011;28144;49.920;18.730;2023-09-30T01:18:46;16.65;;;10.25;;
42514;SDS011;28144;49.920;18.730;2023-09-30T01:21:12;15.70;;;10.17;;
42514;SDS011;28144;49.920;18.730;2023-09-30T01:23:38;21.92;;;9.98;;
42514;SDS011;28144;49.920;18.730;2023-09-30T01:26:04;15.95;;;9.77;;
42514;SDS011;28144;49.920;18.730;2023-09-30T01:28:34;16.90;;;9.48;;
42514;SDS011;28144;49.920;18.730;2023-09-30T01:31:00;16.87;;;10.73;;
42514;SDS011;28144;49.920;18.730;2023-09-30T01:33:26;12.27;;;9.75;;
42514;SDS011;28144;49.920;18.730;2023-09-30T01:35:53;20.88;;;10.32;;
42514;SDS011;28144;49.920;18.730;2023-09-30T01:38:19;18.73;;;10.23;;
42514;SDS011;28144;49.920;18.730;2023-09-30T01:40:46;20.13;;;11.25;;
42514;SDS011;28144;49.920;18.730;2023-09-30T01:43:15;18.60;;;10.52;;
42514;SDS011;28144;49.920;18.730;2023-09-30T01:45:41;21.27;;;12.38;;
42514;SDS011;28144;49.920;18.730;2023-09-30T01:48:08;21.70;;;12.50;;
42514;SDS011;28144;49.920;18.730;2023-09-30T01:50:40;20.83;;;11.15;;
42514;SDS011;28144;49.920;18.730;2023-09-30T01:53:06;22.63;;;11.13;;
42514;SDS011;28144;49.920;18.730;2023-09-30T01:55:35;13.57;;;10.50;;
42514;SDS011;28144;49.920;18.730;2023-09-30T01:58:02;33.42;;;10.98;;
42514;SDS011;28144;49.920;18.730;2023-09-30T02:00:28;19.70;;;10.35;;
42514;SDS011;28144;49.920;18.730;2023-09-30T02:02:54;20.42;;;11.10;;
42514;SDS011;28144;49.920;18.730;2023-09-30T02:07:48;18.55;;;10.95;;
42514;SDS011;28144;49.920;18.730;2023-09-30T02:10:14;17.30;;;10.48;;
42514;SDS011;28144;49.920;18.730;2023-09-30T02:12:41;19.60;;;11.48;;
42514;SDS011;28144;49.920;18.730;2023-09-30T02:15:07;23.80;;;10.13;;
42514;SDS011;28144;49.920;18.730;2023-09-30T02:17:33;18.10;;;10.45;;
42514;SDS011;28144;49.920;18.730;2023-09-30T02:19:58;20.43;;;10.40;;
42514;SDS011;28144;49.920;18.730;2023-09-30T02:22:26;19.98;;;9.65;;
42514;SDS011;28144;49.920;18.730;2023-09-30T02:24:53;15.85;;;9.63;;
42514;SDS011;28144;49.920;18.730;2023-09-30T02:27:20;17.77;;;9.55;;
42514;SDS011;28144;49.920;18.730;2023-09-30T02:29:46;20.02;;;9.55;;
42514;SDS011;28144;49.920;18.730;2023-09-30T02:34:39;20.40;;;9.00;;
42514;SDS011;28144;49.920;18.730;2023-09-30T02:37:05;17.00;;;8.70;;
42514;SDS011;28144;49.920;18.730;2023-09-30T02:39:31;18.70;;;8.23;;
42514;SDS011;28144;49.920;18.730;2023-09-30T02:41:56;21.77;;;9.17;;
42514;SDS011;28144;49.920;18.730;2023-09-30T02:44:22;16.38;;;8.90;;
42514;SDS011;28144;49.920;18.730;2023-09-30T02:46:48;17.30;;;8.30;;
42514;SDS011;28144;49.920;18.730;2023-09-30T02:49:14;22.15;;;9.50;;
42514;SDS011;28144;49.920;18.730;2023-09-30T02:51:39;17.03;;;8.20;;
42514;SDS011;28144;49.920;18.730;2023-09-30T02:54:05;23.65;;;8.73;;
42514;SDS011;28144;49.920;18.730;2023-09-30T02:56:31;16.83;;;8.70;;
42514;SDS011;28144;49.920;18.730;2023-09-30T02:58:57;14.50;;;8.13;;
42514;SDS011;28144;49.920;18.730;2023-09-30T03:01:24;14.48;;;8.55;;
42514;SDS011;28144;49.920;18.730;2023-09-30T03:03:52;16.10;;;7.78;;
42514;SDS011;28144;49.920;18.730;2023-09-30T03:06:17;22.70;;;8.50;;
42514;SDS011;28144;49.920;18.730;2023-09-30T03:08:44;14.27;;;7.22;;
42514;SDS011;28144;49.920;18.730;2023-09-30T03:11:09;15.83;;;8.27;;
42514;SDS011;28144;49.920;18.730;2023-09-30T03:13:36;14.93;;;8.55;;
42514;SDS011;28144;49.920;18.730;2023-09-30T03:16:02;15.07;;;7.75;;
42514;SDS011;28144;49.920;18.730;2023-09-30T03:18:28;16.98;;;7.93;;
42514;SDS011;28144;49.920;18.730;2023-09-30T03:20:58;16.30;;;7.82;;
42514;SDS011;28144;49.920;18.730;2023-09-30T03:23:34;14.07;;;8.45;;
42514;SDS011;28144;49.920;18.730;2023-09-30T03:26:00;21.70;;;8.60;;
42514;SDS011;28144;49.920;18.730;2023-09-30T03:28:26;13.60;;;8.52;;
42514;SDS011;28144;49.920;18.730;2023-09-30T03:30:52;16.92;;;9.38;;
42514;SDS011;28144;49.920;18.730;2023-09-30T03:33:18;13.57;;;8.02;;
42514;SDS011;28144;49.920;18.730;2023-09-30T03:35:44;19.43;;;8.87;;
42514;SDS011;28144;49.920;18.730;2023-09-30T03:38:10;13.65;;;8.63;;
42514;SDS011;28144;49.920;18.730;2023-09-30T03:40:38;14.82;;;9.13;;
42514;SDS011;28144;49.920;18.730;2023-09-30T03:43:10;19.15;;;9.27;;
42514;SDS011;28144;49.920;18.730;2023-09-30T03:45:36;17.20;;;9.73;;
42514;SDS011;28144;49.920;18.730;2023-09-30T03:48:04;21.33;;;10.05;;
42514;SDS011;28144;49.920;18.730;2023-09-30T03:53:02;18.60;;;10.15;;
42514;SDS011;28144;49.920;18.730;2023-09-30T03:55:28;18.27;;;8.95;;
42514;SDS011;28144;49.920;18.730;2023-09-30T03:57:55;22.58;;;10.20;;
42514;SDS011;28144;49.920;18.730;2023-09-30T04:00:21;19.20;;;9.00;;
42514;SDS011;28144;49.920;18.730;2023-09-30T04:02:47;21.70;;;10.20;;
42514;SDS011;28144;49.920;18.730;2023-09-30T04:05:14;22.60;;;10.80;;
42514;SDS011;28144;49.920;18.730;2023-09-30T04:07:42;19.75;;;10.38;;
42514;SDS011;28144;49.920;18.730;2023-09-30T04:10:08;18.50;;;10.20;;
42514;SDS011;28144;49.920;18.730;2023-09-30T04:12:35;14.68;;;10.38;;
42514;SDS011;28144;49.920;18.730;2023-09-30T04:15:01;22.40;;;9.73;;
42514;SDS011;28144;49.920;18.730;2023-09-30T04:17:29;18.35;;;10.63;;
42514;SDS011;28144;49.920;18.730;2023-09-30T04:19:54;15.73;;;10.90;;
42514;SDS011;28144;49.920;18.730;2023-09-30T04:22:20;20.00;;;10.35;;
42514;SDS011;28144;49.920;18.730;2023-09-30T04:24:50;18.13;;;10.27;;
42514;SDS011;28144;49.920;18.730;2023-09-30T04:27:17;18.13;;;10.30;;
42514;SDS011;28144;49.920;18.730;2023-09-30T04:29:43;17.93;;;10.27;;
42514;SDS011;28144;49.920;18.730;2023-09-30T04:32:09;17.75;;;10.00;;
42514;SDS011;28144;49.920;18.730;2023-09-30T04:34:35;17.60;;;10.50;;
42514;SDS011;28144;49.920;18.730;2023-09-30T04:37:01;15.93;;;10.70;;
42514;SDS011;28144;49.920;18.730;2023-09-30T04:39:27;17.45;;;9.77;;
42514;SDS011;28144;49.920;18.730;2023-09-30T04:41:53;22.27;;;10.23;;
42514;SDS011;28144;49.920;18.730;2023-09-30T04:44:20;18.88;;;10.20;;
42514;SDS011;28144;49.920;18.730;2023-09-30T04:46:47;17.25;;;9.98;;
42514;SDS011;28144;49.920;18.730;2023-09-30T04:49:14;23.27;;;10.37;;
42514;SDS011;28144;49.920;18.730;2023-09-30T04:51:40;14.48;;;9.23;;
42514;SDS011;28144;49.920;18.730;2023-09-30T04:54:06;17.70;;;9.00;;
42514;SDS011;28144;49.920;18.730;2023-09-30T04:56:34;12.32;;;9.48;;
42514;SDS011;28144;49.920;18.730;2023-09-30T04:59:00;24.33;;;9.85;;
42514;SDS011;28144;49.920;18.730;2023-09-30T05:01:27;15.45;;;9.05;;
42514;SDS011;28144;49.920;18.730;2023-09-30T05:03:53;17.60;;;8.82;;
42514;SDS011;28144;49.920;18.730;2023-09-30T05:06:20;14.68;;;9.05;;
42514;SDS011;28144;49.920;18.730;2023-09-30T05:08:46;18.15;;;8.13;;
42514;SDS011;28144;49.920;18.730;2023-09-30T05:11:13;16.73;;;9.07;;
42514;SDS011;28144;49.920;18.730;2023-09-30T05:13:39;14.82;;;9.68;;
42514;SDS011;28144;49.920;18.730;2023-09-30T05:16:05;14.73;;;8.50;;
42514;SDS011;28144;49.920;18.730;2023-09-30T05:18:32;14.10;;;9.40;;
42514;SDS011;28144;49.920;18.730;2023-09-30T05:20:58;17.08;;;9.13;;
42514;SDS011;28144;49.920;18.730;2023-09-30T05:23:24;17.03;;;8.90;;
42514;SDS011;28144;49.920;18.730;2023-09-30T05:28:16;19.27;;;9.48;;
42514;SDS011;28144;49.920;18.730;2023-09-30T05:30:42;18.52;;;8.60;;
42514;SDS011;28144;49.920;18.730;2023-09-30T05:33:08;16.10;;;9.07;;
42514;SDS011;28144;49.920;18.730;2023-09-30T05:35:40;14.55;;;8.02;;
42514;SDS011;28144;49.920;18.730;2023-09-30T05:38:07;17.83;;;9.18;;
42514;SDS011;28144;49.920;18.730;2023-09-30T05:40:33;14.77;;;8.70;;
42514;SDS011;28144;49.920;18.730;2023-09-30T05:42:59;16.07;;;8.60;;
42514;SDS011;28144;49.920;18.730;2023-09-30T05:45:26;14.07;;;8.43;;
42514;SDS011;28144;49.920;18.730;2023-09-30T05:48:04;14.10;;;9.38;;
42514;SDS011;28144;49.920;18.730;2023-09-30T05:50:34;18.17;;;9.57;;
42514;SDS011;28144;49.920;18.730;2023-09-30T05:53:01;12.65;;;8.68;;
42514;SDS011;28144;49.920;18.730;2023-09-30T05:55:28;15.10;;;8.23;;
42514;SDS011;28144;49.920;18.730;2023-09-30T05:57:54;14.18;;;8.70;;
42514;SDS011;28144;49.920;18.730;2023-09-30T06:00:20;11.02;;;8.00;;
42514;SDS011;28144;49.920;18.730;2023-09-30T06:07:41;13.27;;;7.57;;
42514;SDS011;28144;49.920;18.730;2023-09-30T06:10:08;18.17;;;9.45;;
42514;SDS011;28144;49.920;18.730;2023-09-30T06:12:34;14.48;;;8.38;;
42514;SDS011;28144;49.920;18.730;2023-09-30T06:15:01;18.58;;;8.30;;
42514;SDS011;28144;49.920;18.730;2023-09-30T06:17:27;15.85;;;8.30;;
42514;SDS011;28144;49.920;18.730;2023-09-30T06:19:53;13.13;;;8.57;;
42514;SDS011;28144;49.920;18.730;2023-09-30T06:22:20;12.38;;;8.70;;
42514;SDS011;28144;49.920;18.730;2023-09-30T06:27:13;12.25;;;8.00;;
42514;SDS011;28144;49.920;18.730;2023-09-30T06:29:39;11.00;;;7.72;;
42514;SDS011;28144;49.920;18.730;2023-09-30T06:32:07;18.80;;;7.88;;
42514;SDS011;28144;49.920;18.730;2023-09-30T06:34:33;13.02;;;8.75;;
42514;SDS011;28144;49.920;18.730;2023-09-30T06:37:00;17.08;;;8.40;;
42514;SDS011;28144;49.920;18.730;2023-09-30T06:39:25;17.55;;;9.10;;
42514;SDS011;28144;49.920;18.730;2023-09-30T06:41:51;15.50;;;8.80;;
42514;SDS011;28144;49.920;18.730;2023-09-30T06:44:17;24.52;;;8.23;;
42514;SDS011;28144;49.920;18.730;2023-09-30T06:46:42;18.13;;;8.60;;
42514;SDS011;28144;49.920;18.730;2023-09-30T06:49:08;19.40;;;10.40;;
42514;SDS011;28144;49.920;18.730;2023-09-30T06:51:35;14.15;;;7.82;;
42514;SDS011;28144;49.920;18.730;2023-09-30T06:54:04;14.80;;;8.00;;
42514;SDS011;28144;49.920;18.730;2023-09-30T06:56:33;14.82;;;8.70;;
42514;SDS011;28144;49.920;18.730;2023-09-30T06:58:59;14.98;;;9.25;;
42514;SDS011;28144;49.920;18.730;2023-09-30T07:01:26;14.38;;;9.45;;
42514;SDS011;28144;49.920;18.730;2023-09-30T07:03:52;17.50;;;9.10;;
42514;SDS011;28144;49.920;18.730;2023-09-30T07:06:26;10.37;;;8.23;;
42514;SDS011;28144;49.920;18.730;2023-09-30T07:08:52;11.50;;;8.82;;
42514;SDS011;28144;49.920;18.730;2023-09-30T07:11:28;19.25;;;9.07;;
42514;SDS011;28144;49.920;18.730;2023-09-30T07:13:55;17.27;;;9.07;;
42514;SDS011;28144;49.920;18.730;2023-09-30T07:16:21;11.63;;;9.35;;
42514;SDS011;28144;49.920;18.730;2023-09-30T07:18:47;15.73;;;9.20;;
42514;SDS011;28144;49.920;18.730;2023-09-30T07:21:13;15.37;;;10.00;;
42514;SDS011;28144;49.920;18.730;2023-09-30T07:23:39;15.00;;;9.00;;
42514;SDS011;28144;49.920;18.730;2023-09-30T07:26:05;12.13;;;9.15;;
42514;SDS011;28144;49.920;18.730;2023-09-30T07:28:32;13.20;;;8.73;;
42514;SDS011;28144;49.920;18.730;2023-09-30T07:33:24;14.20;;;8.93;;
42514;SDS011;28144;49.920;18.730;2023-09-30T07:35:49;11.67;;;9.30;;
42514;SDS011;28144;49.920;18.730;2023-09-30T07:38:17;12.82;;;9.38;;
42514;SDS011;28144;49.920;18.730;2023-09-30T07:40:43;15.33;;;9.90;;
42514;SDS011;28144;49.920;18.730;2023-09-30T07:43:10;11.55;;;9.45;;
42514;SDS011;28144;49.920;18.730;2023-09-30T07:45:37;16.60;;;9.57;;
42514;SDS011;28144;49.920;18.730;2023-09-30T07:48:03;14.27;;;8.93;;
42514;SDS011;28144;49.920;18.730;2023-09-30T07:50:30;13.20;;;8.45;;
42514;SDS011;28144;49.920;18.730;2023-09-30T07:52:59;15.52;;;8.63;;
42514;SDS011;28144;49.920;18.730;2023-09-30T07:55:25;10.07;;;8.68;;
42514;SDS011;28144;49.920;18.730;2023-09-30T07:57:51;16.27;;;9.57;;
42514;SDS011;28144;49.920;18.730;2023-09-30T08:00:18;12.35;;;9.95;;
42514;SDS011;28144;49.920;18.730;2023-09-30T08:02:46;13.35;;;8.85;;
42514;SDS011;28144;49.920;18.730;2023-09-30T08:05:12;21.27;;;9.63;;
42514;SDS011;28144;49.920;18.730;2023-09-30T08:07:38;15.10;;;8.65;;
42514;SDS011;28144;49.920;18.730;2023-09-30T08:10:04;13.10;;;8.85;;
42514;SDS011;28144;49.920;18.730;2023-09-30T08:12:32;16.77;;;8.35;;
42514;SDS011;28144;49.920;18.730;2023-09-30T08:14:58;12.90;;;9.00;;
42514;SDS011;28144;49.920;18.730;2023-09-30T08:17:24;14.80;;;9.05;;
42514;SDS011;28144;49.920;18.730;2023-09-30T08:19:57;15.50;;;8.90;;
42514;SDS011;28144;49.920;18.730;2023-09-30T08:22:23;12.20;;;9.20;;
42514;SDS011;28144;49.920;18.730;2023-09-30T08:24:58;20.30;;;9.88;;
42514;SDS011;28144;49.920;18.730;2023-09-30T08:27:25;14.40;;;9.65;;
42514;SDS011;28144;49.920;18.730;2023-09-30T08:29:51;15.82;;;8.48;;
42514;SDS011;28144;49.920;18.730;2023-09-30T08:32:18;19.42;;;9.27;;
42514;SDS011;28144;49.920;18.730;2023-09-30T08:34:43;17.47;;;8.93;;
42514;SDS011;28144;49.920;18.730;2023-09-30T08:37:12;14.70;;;9.65;;
42514;SDS011;28144;49.920;18.730;2023-09-30T08:39:40;16.65;;;9.00;;
42514;SDS011;28144;49.920;18.730;2023-09-30T08:44:39;15.35;;;9.30;;
42514;SDS011;28144;49.920;18.730;2023-09-30T08:47:06;15.55;;;8.75;;
42514;SDS011;28144;49.920;18.730;2023-09-30T08:49:36;15.50;;;8.55;;
42514;SDS011;28144;49.920;18.730;2023-09-30T08:52:09;14.93;;;9.38;;
42514;SDS011;28144;49.920;18.730;2023-09-30T08:54:36;15.27;;;9.43;;
42514;SDS011;28144;49.920;18.730;2023-09-30T08:57:06;14.68;;;9.65;;
42514;SDS011;28144;49.920;18.730;2023-09-30T08:59:34;13.52;;;8.65;;
42514;SDS011;28144;49.920;18.730;2023-09-30T09:02:01;12.43;;;9.45;;
42514;SDS011;28144;49.920;18.730;2023-09-30T09:04:27;19.10;;;9.65;;
42514;SDS011;28144;49.920;18.730;2023-09-30T09:06:54;16.58;;;10.40;;
42514;SDS011;28144;49.920;18.730;2023-09-30T09:09:21;17.52;;;9.82;;
42514;SDS011;28144;49.920;18.730;2023-09-30T09:11:48;13.00;;;8.90;;
42514;SDS011;28144;49.920;18.730;2023-09-30T09:14:14;11.15;;;8.98;;
42514;SDS011;28144;49.920;18.730;2023-09-30T09:16:50;14.52;;;9.35;;
42514;SDS011;28144;49.920;18.730;2023-09-30T09:19:19;15.05;;;9.23;;
42514;SDS011;28144;49.920;18.730;2023-09-30T09:21:55;16.25;;;10.18;;
42514;SDS011;28144;49.920;18.730;2023-09-30T09:24:32;17.02;;;10.95;;
42514;SDS011;28144;49.920;18.730;2023-09-30T09:27:08;13.43;;;9.77;;
42514;SDS011;28144;49.920;18.730;2023-09-30T09:29:38;13.68;;;9.48;;
42514;SDS011;28144;49.920;18.730;2023-09-30T09:32:12;13.48;;;8.82;;
42514;SDS011;28144;49.920;18.730;2023-09-30T09:34:41;15.05;;;10.70;;
42514;SDS011;28144;49.920;18.730;2023-09-30T09:37:16;16.08;;;11.43;;
42514;SDS011;28144;49.920;18.730;2023-09-30T09:39:55;15.23;;;10.25;;
42514;SDS011;28144;49.920;18.730;2023-09-30T09:42:31;13.30;;;11.05;;
42514;SDS011;28144;49.920;18.730;2023-09-30T09:45:01;12.63;;;11.10;;
42514;SDS011;28144;49.920;18.730;2023-09-30T09:47:31;13.95;;;10.88;;
42514;SDS011;28144;49.920;18.730;2023-09-30T09:49:59;15.73;;;11.27;;
42514;SDS011;28144;49.920;18.730;2023-09-30T09:52:26;14.50;;;11.13;;
42514;SDS011;28144;49.920;18.730;2023-09-30T09:54:53;15.60;;;10.65;;
42514;SDS011;28144;49.920;18.730;2023-09-30T09:57:19;15.98;;;11.75;;
42514;SDS011;28144;49.920;18.730;2023-09-30T09:59:46;17.95;;;11.75;;
42514;SDS011;28144;49.920;18.730;2023-09-30T10:02:16;15.27;;;11.25;;
42514;SDS011;28144;49.920;18.730;2023-09-30T10:04:43;14.13;;;11.13;;
42514;SDS011;28144;49.920;18.730;2023-09-30T10:07:19;11.40;;;10.05;;
42514;SDS011;28144;49.920;18.730;2023-09-30T10:09:48;13.93;;;11.15;;
42514;SDS011;28144;49.920;18.730;2023-09-30T10:12:16;17.13;;;12.13;;
42514;SDS011;28144;49.920;18.730;2023-09-30T10:14:45;16.90;;;12.10;;
42514;SDS011;28144;49.920;18.730;2023-09-30T10:17:12;14.77;;;11.55;;
42514;SDS011;28144;49.920;18.730;2023-09-30T10:20:03;16.70;;;12.93;;
42514;SDS011;28144;49.920;18.730;2023-09-30T10:22:33;16.77;;;12.98;;
42514;SDS011;28144;49.920;18.730;2023-09-30T10:25:00;16.70;;;13.75;;
42514;SDS011;28144;49.920;18.730;2023-09-30T10:27:27;14.30;;;12.80;;
42514;SDS011;28144;49.920;18.730;2023-09-30T10:40:47;17.42;;;12.40;;
42514;SDS011;28144;49.920;18.730;2023-09-30T10:43:31;16.00;;;13.05;;
42514;SDS011;28144;49.920;18.730;2023-09-30T10:48:54;15.55;;;11.80;;
42514;SDS011;28144;49.920;18.730;2023-09-30T10:51:22;19.52;;;11.60;;
42514;SDS011;28144;49.920;18.730;2023-09-30T10:53:52;18.08;;;9.82;;
42514;SDS011;28144;49.920;18.730;2023-09-30T10:56:23;14.85;;;10.82;;
42514;SDS011;28144;49.920;18.730;2023-09-30T10:58:52;14.48;;;8.63;;
42514;SDS011;28144;49.920;18.730;2023-09-30T11:01:19;12.13;;;8.70;;
42514;SDS011;28144;49.920;18.730;2023-09-30T11:09:42;4.72;;;3.92;;
42514;SDS011;28144;49.920;18.730;2023-09-30T11:12:13;6.60;;;4.97;;
42514;SDS011;28144;49.920;18.730;2023-09-30T11:14:39;8.43;;;5.93;;
42514;SDS011;28144;49.920;18.730;2023-09-30T11:17:06;14.63;;;5.68;;
42514;SDS011;28144;49.920;18.730;2023-09-30T11:19:35;14.03;;;6.73;;
42514;SDS011;28144;49.920;18.730;2023-09-30T11:22:02;11.18;;;6.70;;
42514;SDS011;28144;49.920;18.730;2023-09-30T11:24:29;10.30;;;6.68;;
42514;SDS011;28144;49.920;18.730;2023-09-30T11:29:21;10.13;;;7.10;;
42514;SDS011;28144;49.920;18.730;2023-09-30T11:31:48;9.95;;;6.95;;
42514;SDS011;28144;49.920;18.730;2023-09-30T11:34:16;10.32;;;6.05;;
42514;SDS011;28144;49.920;18.730;2023-09-30T11:36:49;10.57;;;6.75;;
42514;SDS011;28144;49.920;18.730;2023-09-30T11:41:49;10.18;;;6.03;;
42514;SDS011;28144;49.920;18.730;2023-09-30T11:44:15;12.75;;;6.68;;
42514;SDS011;28144;49.920;18.730;2023-09-30T11:46:58;17.10;;;8.52;;
42514;SDS011;28144;49.920;18.730;2023-09-30T11:51:55;14.75;;;7.63;;
42514;SDS011;28144;49.920;18.730;2023-09-30T11:54:22;10.50;;;6.47;;
42514;SDS011;28144;49.920;18.730;2023-09-30T11:56:49;10.55;;;6.88;;
42514;SDS011;28144;49.920;18.730;2023-09-30T11:59:16;13.48;;;6.32;;
42514;SDS011;28144;49.920;18.730;2023-09-30T12:01:45;14.95;;;6.65;;
42514;SDS011;28144;49.920;18.730;2023-09-30T12:04:14;12.75;;;5.88;;
42514;SDS011;28144;49.920;18.730;2023-09-30T12:06:43;9.82;;;5.45;;
42514;SDS011;28144;49.920;18.730;2023-09-30T12:09:14;7.97;;;5.28;;
42514;SDS011;28144;49.920;18.730;2023-09-30T12:11:44;7.95;;;5.10;;
42514;SDS011;28144;49.920;18.730;2023-09-30T12:14:11;8.63;;;5.63;;
42514;SDS011;28144;49.920;18.730;2023-09-30T12:16:37;9.30;;;5.80;;
42514;SDS011;28144;49.920;18.730;2023-09-30T12:19:04;10.70;;;6.35;;
42514;SDS011;28144;49.920;18.730;2023-09-30T12:21:31;12.85;;;7.70;;
42514;SDS011;28144;49.920;18.730;2023-09-30T12:23:59;9.77;;;6.97;;
42514;SDS011;28144;49.920;18.730;2023-09-30T12:26:25;10.30;;;7.35;;
42514;SDS011;28144;49.920;18.730;2023-09-30T12:28:51;11.52;;;7.57;;
42514;SDS011;28144;49.920;18.730;2023-09-30T12:31:18;14.98;;;8.75;;
42514;SDS011;28144;49.920;18.730;2023-09-30T12:33:45;12.70;;;8.25;;
42514;SDS011;28144;49.920;18.730;2023-09-30T12:36:16;14.50;;;8.07;;
42514;SDS011;28144;49.920;18.730;2023-09-30T12:38:42;11.35;;;7.65;;
42514;SDS011;28144;49.920;18.730;2023-09-30T12:41:09;11.95;;;6.90;;
42514;SDS011;28144;49.920;18.730;2023-09-30T12:43:35;10.98;;;6.90;;
42514;SDS011;28144;49.920;18.730;2023-09-30T12:46:03;12.68;;;6.15;;
42514;SDS011;28144;49.920;18.730;2023-09-30T12:48:31;14.82;;;6.95;;
42514;SDS011;28144;49.920;18.730;2023-09-30T12:50:58;11.88;;;6.85;;
42514;SDS011;28144;49.920;18.730;2023-09-30T12:53:23;12.43;;;6.07;;
42514;SDS011;28144;49.920;18.730;2023-09-30T12:55:50;10.00;;;5.47;;
42514;SDS011;28144;49.920;18.730;2023-09-30T12:58:15;10.67;;;5.40;;
42514;SDS011;28144;49.920;18.730;2023-09-30T13:00:41;7.95;;;5.65;;
42514;SDS011;28144;49.920;18.730;2023-09-30T13:03:07;10.85;;;5.82;;
42514;SDS011;28144;49.920;18.730;2023-09-30T13:05:33;18.45;;;5.80;;
42514;SDS011;28144;49.920;18.730;2023-09-30T13:07:59;13.88;;;5.50;;
42514;SDS011;28144;49.920;18.730;2023-09-30T13:10:25;8.75;;;4.93;;
42514;SDS011;28144;49.920;18.730;2023-09-30T13:12:51;8.77;;;5.28;;
42514;SDS011;28144;49.920;18.730;2023-09-30T13:15:24;15.65;;;5.72;;
42514;SDS011;28144;49.920;18.730;2023-09-30T13:17:52;13.48;;;5.97;;
42514;SDS011;28144;49.920;18.730;2023-09-30T13:20:18;11.30;;;5.15;;
42514;SDS011;28144;49.920;18.730;2023-09-30T13:22:44;7.00;;;5.00;;
42514;SDS011;28144;49.920;18.730;2023-09-30T13:25:11;10.10;;;5.18;;
42514;SDS011;28144;49.920;18.730;2023-09-30T13:27:42;12.45;;;5.93;;
42514;SDS011;28144;49.920;18.730;2023-09-30T13:32:34;19.25;;;7.15;;
42514;SDS011;28144;49.920;18.730;2023-09-30T13:35:07;12.73;;;5.90;;
42514;SDS011;28144;49.920;18.730;2023-09-30T13:37:33;11.65;;;6.07;;
42514;SDS011;28144;49.920;18.730;2023-09-30T13:40:02;14.93;;;5.97;;
42514;SDS011;28144;49.920;18.730;2023-09-30T13:42:34;10.77;;;5.63;;
42514;SDS011;28144;49.920;18.730;2023-09-30T13:45:01;10.15;;;5.25;;
42514;SDS011;28144;49.920;18.730;2023-09-30T13:47:28;11.75;;;5.20;;
42514;SDS011;28144;49.920;18.730;2023-09-30T13:49:55;8.18;;;4.43;;
42514;SDS011;28144;49.920;18.730;2023-09-30T13:52:25;9.60;;;4.88;;
42514;SDS011;28144;49.920;18.730;2023-09-30T13:54:51;11.00;;;4.55;;
42514;SDS011;28144;49.920;18.730;2023-09-30T13:57:17;12.43;;;4.60;;
42514;SDS011;28144;49.920;18.730;2023-09-30T13:59:43;14.23;;;4.20;;
42514;SDS011;28144;49.920;18.730;2023-09-30T14:02:08;9.87;;;4.00;;
42514;SDS011;28144;49.920;18.730;2023-09-30T14:04:37;12.00;;;4.05;;
42514;SDS011;28144;49.920;18.730;2023-09-30T14:07:04;11.23;;;3.63;;
42514;SDS011;28144;49.920;18.730;2023-09-30T14:09:33;12.00;;;4.28;;
42514;SDS011;28144;49.920;18.730;2023-09-30T14:12:01;9.90;;;4.28;;
42514;SDS011;28144;49.920;18.730;2023-09-30T14:14:32;10.45;;;4.72;;
42514;SDS011;28144;49.920;18.730;2023-09-30T14:16:59;11.55;;;4.47;;
42514;SDS011;28144;49.920;18.730;2023-09-30T14:19:25;9.95;;;4.60;;
42514;SDS011;28144;49.920;18.730;2023-09-30T14:21:51;9.07;;;3.92;;
42514;SDS011;28144;49.920;18.730;2023-09-30T14:24:18;13.68;;;4.85;;
42514;SDS011;28144;49.920;18.730;2023-09-30T14:26:45;9.35;;;4.35;;
42514;SDS011;28144;49.920;18.730;2023-09-30T14:29:11;10.80;;;4.88;;
42514;SDS011;28144;49.920;18.730;2023-09-30T14:31:39;11.55;;;4.10;;
42514;SDS011;28144;49.920;18.730;2023-09-30T14:34:05;10.93;;;4.50;;
42514;SDS011;28144;49.920;18.730;2023-09-30T14:36:31;11.77;;;5.67;;
42514;SDS011;28144;49.920;18.730;2023-09-30T14:38:59;13.75;;;4.97;;
42514;SDS011;28144;49.920;18.730;2023-09-30T14:41:24;14.32;;;4.72;;
42514;SDS011;28144;49.920;18.730;2023-09-30T14:43:50;12.77;;;3.85;;
42514;SDS011;28144;49.920;18.730;2023-09-30T14:46:16;11.43;;;4.30;;
42514;SDS011;28144;49.920;18.730;2023-09-30T14:48:42;8.20;;;3.75;;
42514;SDS011;28144;49.920;18.730;2023-09-30T14:51:10;11.13;;;4.78;;
42514;SDS011;28144;49.920;18.730;2023-09-30T14:53:36;8.48;;;3.80;;
42514;SDS011;28144;49.920;18.730;2023-09-30T14:56:03;15.43;;;3.83;;
42514;SDS011;28144;49.920;18.730;2023-09-30T14:58:32;10.45;;;3.88;;
42514;SDS011;28144;49.920;18.730;2023-09-30T15:00:58;7.63;;;3.37;;
42514;SDS011;28144;49.920;18.730;2023-09-30T15:03:23;8.43;;;3.47;;
42514;SDS011;28144;49.920;18.730;2023-09-30T15:05:56;11.63;;;4.57;;
42514;SDS011;28144;49.920;18.730;2023-09-30T15:08:24;9.10;;;2.88;;
42514;SDS011;28144;49.920;18.730;2023-09-30T15:10:50;11.47;;;3.20;;
42514;SDS011;28144;49.920;18.730;2023-09-30T15:13:16;9.60;;;3.35;;